Time;durP1;ratioP1;P1;durP2;ratioP2;P2;SDS_P1;SDS_P2;PMS_P1;PMS_P2;Temp;Humidity;BMP_temperature;BMP_pressure;BME280_temperature;BME280_humidity;BME280_pressure;Samples;Min_cycle;Max_cycle;Signal;HPM_P1;HPM_P2
2022/11/19 00:01:12;;;;;;;4.05;2.08;;;;;;;6.48;95.42;100936.19;5013961;28;101228;-31
2022/11/19 00:03:39;;;;;;;4.75;1.88;;;;;;;6.42;95.75;100936.47;5014170;28;101057;-31
2022/11/19 00:06:07;;;;;;;6.20;3.38;;;;;;;6.43;95.82;100932.81;5014029;28;96590;-31
2022/11/19 00:08:33;;;;;;;5.40;2.58;;;;;;;6.40;95.50;100932.97;5013762;28;96869;-31
2022/11/19 00:11:08;;;;;;;2.17;1.70;;;;;;;6.29;95.41;100938.78;5013422;28;101089;-31
2022/11/19 00:13:34;;;;;;;5.05;2.53;;;;;;;6.28;95.99;100940.59;5013935;28;103603;-31
2022/11/19 00:16:04;;;;;;;3.60;2.40;;;;;;;6.20;95.78;100937.38;5013620;28;96516;-31
2022/11/19 00:18:29;;;;;;;5.97;3.17;;;;;;;6.23;95.88;100944.44;5014101;28;96845;-31
2022/11/19 00:20:55;;;;;;;2.95;1.65;;;;;;;6.13;95.44;100942.13;5031865;28;99565;-32
2022/11/19 00:23:21;;;;;;;4.65;2.45;;;;;;;6.16;95.45;100951.88;5031862;28;99311;-32
2022/11/19 00:25:48;;;;;;;3.58;1.50;;;;;;;6.21;96.06;100952.56;5013821;28;96601;-31
2022/11/19 00:28:13;;;;;;;8.63;2.78;;;;;;;6.17;95.25;100956.31;5032640;28;98236;-31
2022/11/19 00:30:38;;;;;;;6.45;2.70;;;;;;;6.12;95.19;100950.25;5031367;28;99304;-32
2022/11/19 00:33:04;;;;;;;3.10;2.28;;;;;;;6.10;95.07;100952.13;5031637;28;104158;-32
2022/11/19 00:35:29;;;;;;;5.57;2.97;;;;;;;6.04;94.80;100950.56;5031467;28;98057;-31
2022/11/19 00:37:55;;;;;;;1.92;1.00;;;;;;;5.97;94.00;100957.13;5029532;28;107703;-32
2022/11/19 00:40:20;;;;;;;4.07;2.38;;;;;;;5.85;94.20;100950.41;5031640;28;99919;-30
2022/11/19 00:43:45;;;;;;;7.38;1.35;;;;;;;5.77;94.24;100949.84;5029796;28;97713;-31
2022/11/19 00:45:31;;;;;;;3.63;2.20;;;;;;;5.82;94.48;100958.59;5031764;28;96580;-31
2022/11/19 00:47:56;;;;;;;5.97;3.00;;;;;;;5.78;94.24;100962.34;5031659;28;96834;-31
2022/11/19 00:50:21;;;;;;;5.72;2.45;;;;;;;5.77;94.48;100960.59;5030786;28;112280;-32
2022/11/19 00:52:46;;;;;;;6.00;2.40;;;;;;;5.77;94.57;100965.09;5032197;28;97253;-31
2022/11/19 00:55:12;;;;;;;4.20;2.10;;;;;;;5.79;94.59;100966.78;5031623;28;100488;-31
2022/11/19 00:57:37;;;;;;;4.47;2.67;;;;;;;5.72;94.25;100974.22;5031760;28;96774;-31
2022/11/19 01:00:03;;;;;;;7.75;3.10;;;;;;;5.72;94.54;100978.69;5029876;28;98010;-31
2022/11/19 01:02:28;;;;;;;8.77;3.67;;;;;;;5.81;95.16;100972.09;5031661;28;97311;-31
2022/11/19 01:04:53;;;;;;;3.67;2.30;;;;;;;5.84;94.69;100978.25;5031504;28;96621;-31
2022/11/19 01:07:19;;;;;;;8.13;3.28;;;;;;;5.87;95.02;100978.09;5031264;28;98170;-31
2022/11/19 01:09:46;;;;;;;4.97;2.58;;;;;;;5.77;94.30;100981.22;5033155;27;99849;-31
2022/11/19 01:12:11;;;;;;;5.22;3.25;;;;;;;5.69;94.21;100989.59;5034817;28;99427;-31
2022/11/19 01:14:36;;;;;;;13.40;3.95;;;;;;;5.63;94.44;100985.34;5034368;28;96710;-31
2022/11/19 01:17:02;;;;;;;5.63;3.40;;;;;;;5.67;94.54;100988.75;5034868;28;96864;-30
2022/11/19 01:19:27;;;;;;;4.28;2.72;;;;;;;5.72;94.55;101000.19;5034474;28;99507;-31
2022/11/19 01:21:52;;;;;;;9.93;3.40;;;;;;;5.69;94.35;101003.03;5016412;28;104798;-31
2022/11/19 01:24:18;;;;;;;8.00;3.47;;;;;;;5.66;94.60;101005.84;5033545;28;96554;-30
2022/11/19 01:26:43;;;;;;;5.50;2.65;;;;;;;5.70;94.66;101010.16;5034611;28;96870;-31
2022/11/19 01:29:08;;;;;;;7.47;4.82;;;;;;;5.72;94.93;101005.56;5034682;28;97313;-30
2022/11/19 01:31:33;;;;;;;7.05;3.15;;;;;;;5.70;94.42;101010.16;5034282;28;99803;-31
2022/11/19 01:33:59;;;;;;;7.80;3.70;;;;;;;5.67;94.12;101011.16;5034483;28;101699;-32
2022/11/19 01:36:26;;;;;;;6.10;3.30;;;;;;;5.66;94.79;101011.22;5034572;28;96603;-31
2022/11/19 01:38:53;;;;;;;4.15;2.63;;;;;;;5.71;94.87;101014.59;5016088;28;101171;-33
2022/11/19 01:41:21;;;;;;;6.40;3.38;;;;;;;5.70;94.76;101013.72;5016382;28;101319;-31
2022/11/19 01:43:50;;;;;;;5.68;2.22;;;;;;;5.75;95.18;101017.09;5016210;28;96604;-31
2022/11/19 01:46:18;;;;;;;6.25;4.10;;;;;;;5.82;95.09;101015.06;5016167;28;96815;-31
2022/11/19 01:49:07;;;;;;;6.63;3.50;;;;;;;5.86;95.23;101022.03;5015750;28;100754;-31
2022/11/19 01:51:51;;;;;;;2.20;1.75;;;;;;;5.73;94.61;101018.09;5034126;28;98756;-31
2022/11/19 01:54:28;;;;;;;3.95;2.22;;;;;;;5.66;94.83;101019.28;5016297;28;96585;-31
2022/11/19 01:56:56;;;;;;;4.43;2.72;;;;;;;5.60;94.82;101016.81;5016202;28;96749;-31
2022/11/19 01:59:22;;;;;;;4.88;2.63;;;;;;;5.60;94.91;101014.13;5015968;28;101248;-31
2022/11/19 02:01:48;;;;;;;2.92;1.67;;;;;;;5.56;95.19;101016.06;5034082;28;97821;-31
2022/11/19 02:04:16;;;;;;;4.50;1.90;;;;;;;5.54;95.12;101018.78;5033953;28;96531;-31
2022/11/19 02:06:43;;;;;;;4.35;2.53;;;;;;;5.51;94.99;101018.91;5033815;28;98011;-31
2022/11/19 02:09:08;;;;;;;9.23;4.20;;;;;;;5.45;94.68;101024.50;5033991;28;98094;-32
2022/11/19 02:11:56;;;;;;;4.60;2.67;;;;;;;5.38;94.43;101035.53;5033317;28;108598;-31
2022/11/19 02:14:33;;;;;;;7.57;3.10;;;;;;;5.27;94.42;101042.19;5015294;28;97028;-31
2022/11/19 02:17:28;;;;;;;2.85;2.10;;;;;;;5.25;94.99;101037.81;5033486;28;96937;-33
2022/11/19 02:20:16;;;;;;;4.88;2.33;;;;;;;5.25;94.50;101046.75;5033396;27;99712;-30
2022/11/19 02:23:09;;;;;;;3.67;2.20;;;;;;;5.18;94.50;101053.28;5015601;28;101228;-31
2022/11/19 02:25:37;;;;;;;4.35;2.45;;;;;;;5.07;94.43;101056.31;5033224;28;96804;-31
2022/11/19 02:28:29;;;;;;;5.85;3.58;;;;;;;5.10;94.75;101058.03;5015556;28;97083;-30
2022/11/19 02:31:13;;;;;;;6.70;3.67;;;;;;;5.16;94.82;101059.63;5015480;28;100919;-31
2022/11/19 02:33:48;;;;;;;4.82;2.53;;;;;;;5.14;94.63;101066.84;5015548;28;100907;-32
2022/11/19 02:36:42;;;;;;;4.38;2.67;;;;;;;5.16;94.68;101065.88;5015397;28;96591;-31
2022/11/19 02:39:16;;;;;;;6.40;2.78;;;;;;;5.14;94.84;101061.50;5011933;28;96861;-31
2022/11/19 02:42:06;;;;;;;8.85;3.80;;;;;;;5.11;94.74;101065.16;5014890;28;101239;-30
2022/11/19 02:47:35;;;;;;;4.18;2.20;;;;;;;4.95;94.02;101062.13;5034119;28;96573;-31
2022/11/19 02:50:12;;;;;;;5.00;3.22;;;;;;;4.94;94.67;101075.63;5015356;28;96754;-31
2022/11/19 02:52:38;;;;;;;8.80;3.78;;;;;;;4.96;94.64;101080.00;5015205;28;100979;-31
2022/11/19 02:55:04;;;;;;;2.53;2.03;;;;;;;4.89;94.25;101081.16;5033289;28;97833;-31
2022/11/19 02:57:29;;;;;;;6.35;3.00;;;;;;;4.84;94.51;101080.44;5015195;28;97648;-30
2022/11/19 03:05:46;;;;;;;5.38;2.53;;;;;;;5.01;94.77;101080.72;5031085;28;96998;-31
2022/11/19 03:08:11;;;;;;;6.30;3.67;;;;;;;5.02;94.66;101082.47;5032799;28;96753;-32
2022/11/19 03:10:54;;;;;;;9.52;4.85;;;;;;;4.96;94.31;101082.69;5032741;28;96810;-31
2022/11/19 03:19:07;;;;;;;5.10;2.75;;;;;;;4.96;94.09;101098.78;5033503;28;96455;-32
2022/11/19 03:21:37;;;;;;;;;;;;;;;4.84;93.41;101088.47;5033147;28;96767;-31
2022/11/19 03:24:09;;;;;;;4.60;2.63;;;;;;;4.73;93.08;101082.59;5032126;28;99326;-31
2022/11/19 03:26:43;;;;;;;6.60;3.63;;;;;;;4.71;93.69;101090.69;5015170;28;101467;-31
2022/11/19 03:29:11;;;;;;;4.88;3.13;;;;;;;4.69;93.42;101081.81;5014723;28;96703;-32
2022/11/19 03:31:39;;;;;;;4.32;3.13;;;;;;;4.68;93.47;101086.28;5014064;28;96793;-31
2022/11/19 03:34:13;;;;;;;3.92;2.30;;;;;;;4.66;93.67;101090.84;5013864;28;100823;-31
2022/11/19 03:36:42;;;;;;;6.07;3.60;;;;;;;4.70;93.80;101090.75;5014240;28;101004;-31
2022/11/19 03:39:11;;;;;;;10.57;4.05;;;;;;;4.69;93.50;101084.50;5014582;28;96536;-30
2022/11/19 03:41:40;;;;;;;4.70;2.72;;;;;;;4.67;93.41;101089.94;5014546;28;96869;-31
2022/11/19 03:44:15;;;;;;;6.28;3.83;;;;;;;4.67;93.64;101089.94;5032076;28;98046;-31
2022/11/19 03:46:43;;;;;;;6.05;3.50;;;;;;;4.68;93.74;101102.41;5014183;28;101066;-33
2022/11/19 03:49:11;;;;;;;8.55;3.95;;;;;;;4.75;93.71;101103.06;5014414;28;96609;-31
2022/11/19 03:51:47;;;;;;;12.05;3.47;;;;;;;4.72;93.28;101113.91;5014721;28;96849;-31
2022/11/19 03:54:13;;;;;;;3.83;2.67;;;;;;;4.64;93.22;101111.47;5014034;28;101273;-30
2022/11/19 03:56:40;;;;;;;7.97;3.60;;;;;;;4.62;92.90;101116.03;5032328;28;97990;-31
2022/11/19 03:59:09;;;;;;;5.07;2.60;;;;;;;4.51;92.83;101115.50;5013770;28;97707;-31
2022/11/19 04:01:35;;;;;;;7.43;4.38;;;;;;;4.54;93.21;101112.69;5014248;28;97181;-31
2022/11/19 04:06:45;;;;;;;5.43;2.58;;;;;;;4.43;92.62;101114.84;5032111;28;96774;-30
2022/11/19 04:09:10;;;;;;;9.20;4.85;;;;;;;4.39;92.87;101119.44;5032468;28;96599;-31
2022/11/19 04:11:36;;;;;;;4.32;2.95;;;;;;;4.37;92.93;101118.59;5032264;28;96895;-31
2022/11/19 04:14:01;;;;;;;2.65;2.13;;;;;;;4.37;92.83;101120.41;5032226;28;97697;-31
2022/11/19 04:16:26;;;;;;;3.63;2.70;;;;;;;4.32;92.18;101119.69;5031948;28;97335;-30
2022/11/19 04:18:51;;;;;;;3.80;2.70;;;;;;;4.35;92.36;101130.31;5014084;28;96613;-32
2022/11/19 04:21:17;;;;;;;9.38;3.72;;;;;;;4.29;92.33;101136.75;5032181;28;96726;-31
2022/11/19 04:23:42;;;;;;;8.88;3.88;;;;;;;4.30;92.83;101133.13;5031297;28;99423;-31
2022/11/19 04:26:07;;;;;;;3.08;2.30;;;;;;;4.32;91.83;101143.81;5031259;28;97776;-31
2022/11/19 04:28:33;;;;;;;6.72;3.97;;;;;;;4.31;92.49;101134.00;5031974;28;96577;-31
2022/11/19 04:30:58;;;;;;;4.78;2.65;;;;;;;4.26;92.26;101142.19;5031783;28;96809;-31
2022/11/19 04:33:23;;;;;;;5.97;3.55;;;;;;;4.17;91.97;101140.69;5031746;28;98463;-31
2022/11/19 04:35:49;;;;;;;4.95;2.75;;;;;;;4.13;91.71;101154.22;5031828;28;97788;-31
2022/11/19 04:38:14;;;;;;;8.55;3.85;;;;;;;4.18;92.34;101139.75;5031892;28;96464;-31
2022/11/19 04:40:40;;;;;;;5.85;3.42;;;;;;;4.14;91.32;101140.75;5031871;28;96821;-31
2022/11/19 04:43:06;;;;;;;9.40;4.10;;;;;;;4.15;92.05;101147.91;5013483;28;101081;-31
2022/11/19 04:45:31;;;;;;;2.95;2.20;;;;;;;4.18;91.85;101152.28;5034571;28;99244;-33
2022/11/19 04:47:56;;;;;;;5.63;2.78;;;;;;;4.20;92.14;101158.47;5034858;28;96453;-31
2022/11/19 04:50:22;;;;;;;8.15;4.60;;;;;;;4.24;92.30;101162.81;5035492;28;96792;-31
2022/11/19 04:52:47;;;;;;;8.00;3.47;;;;;;;4.28;92.72;101166.28;5035204;28;97394;-30
2022/11/19 04:55:13;;;;;;;10.65;5.63;;;;;;;4.32;92.70;101165.28;5035109;28;97287;-31
2022/11/19 04:57:38;;;;;;;9.02;4.53;;;;;;;4.34;92.16;101183.06;5035191;28;96453;-31
2022/11/19 05:00:04;;;;;;;4.35;3.00;;;;;;;4.28;91.55;101182.38;5034961;28;96848;-31
2022/11/19 05:02:30;;;;;;;5.47;3.47;;;;;;;4.19;90.73;101189.75;5016532;28;101675;-32
2022/11/19 05:04:55;;;;;;;9.52;5.72;;;;;;;4.14;90.99;101180.09;5035425;28;97824;-32
2022/11/19 05:07:20;;;;;;;9.63;5.20;;;;;;;4.07;91.65;101192.78;5034987;28;96520;-31
2022/11/19 05:09:46;;;;;;;9.13;5.18;;;;;;;4.04;90.85;101183.03;5034860;28;96869;-31
2022/11/19 05:12:11;;;;;;;8.23;4.40;;;;;;;3.96;91.15;101192.25;5034661;28;97366;-31
2022/11/19 05:14:37;;;;;;;8.48;4.30;;;;;;;3.87;90.20;101184.47;5034718;28;97937;-30
2022/11/19 05:17:03;;;;;;;6.82;4.43;;;;;;;3.85;90.62;101184.50;5016326;28;96613;-31
2022/11/19 05:19:29;;;;;;;6.78;4.22;;;;;;;3.81;90.52;101189.09;5034710;28;96765;-32
2022/11/19 05:21:54;;;;;;;4.30;2.45;;;;;;;3.76;90.52;101182.94;5034825;28;97420;-31
2022/11/19 05:24:19;;;;;;;7.60;3.88;;;;;;;3.67;90.07;101187.69;5034405;28;98241;-32
2022/11/19 05:26:45;;;;;;;5.78;2.72;;;;;;;3.64;90.72;101182.41;5034197;28;96608;-31
2022/11/19 05:29:10;;;;;;;5.80;3.75;;;;;;;3.60;90.58;101190.56;5035205;28;96768;-31
2022/11/19 05:31:36;;;;;;;10.43;6.85;;;;;;;3.59;91.15;101198.63;5033574;28;99870;-31
2022/11/19 05:34:01;;;;;;;6.25;4.00;;;;;;;3.57;91.08;101195.09;5034631;28;97986;-31
2022/11/19 05:36:26;;;;;;;9.82;5.03;;;;;;;3.59;91.68;101204.84;5034189;28;96584;-31
2022/11/19 05:38:52;;;;;;;11.68;4.47;;;;;;;3.58;91.49;101213.81;5034160;28;98992;-32
2022/11/19 05:41:17;;;;;;;8.32;5.20;;;;;;;3.63;91.31;101205.66;5034238;28;100984;-31
2022/11/19 05:43:42;;;;;;;6.65;4.53;;;;;;;3.67;90.87;101211.78;5034108;28;104570;-31
2022/11/19 05:46:08;;;;;;;7.93;3.85;;;;;;;3.55;90.43;101226.38;5034212;28;98759;-31
2022/11/19 05:48:33;;;;;;;9.95;4.03;;;;;;;3.46;90.75;101218.63;5034332;28;96817;-31
2022/11/19 05:50:58;;;;;;;8.10;5.10;;;;;;;3.44;91.09;101218.66;5034284;28;98397;-31
2022/11/19 05:53:24;;;;;;;10.45;5.60;;;;;;;3.46;90.34;101229.34;5034618;28;97753;-31
2022/11/19 05:55:49;;;;;;;10.07;4.68;;;;;;;3.43;90.84;101235.63;5033584;27;96648;-31
2022/11/19 05:58:14;;;;;;;8.20;5.30;;;;;;;3.46;90.30;101234.69;5034428;28;96822;-32
2022/11/19 06:00:40;;;;;;;7.18;4.50;;;;;;;3.39;90.80;101225.94;5033706;28;97817;-31
2022/11/19 06:03:05;;;;;;;9.45;5.40;;;;;;;3.31;90.22;101241.28;5034135;28;97835;-31
2022/11/19 06:05:30;;;;;;;9.68;5.18;;;;;;;3.27;90.61;101229.81;5033908;28;101683;-33
2022/11/19 06:07:56;;;;;;;8.68;6.43;;;;;;;3.28;90.49;101242.25;5033475;28;96789;-31
2022/11/19 06:10:21;;;;;;;8.50;5.03;;;;;;;3.32;90.52;101233.25;5034188;28;97719;-32
2022/11/19 06:12:47;;;;;;;13.35;6.25;;;;;;;3.33;90.58;101239.47;5034001;28;97891;-32
2022/11/19 06:15:13;;;;;;;3.05;2.03;;;;;;;3.23;89.17;101252.19;5033650;28;98432;-31
2022/11/19 06:17:38;;;;;;;14.60;5.80;;;;;;;3.17;90.10;101246.97;5015872;28;96973;-31
2022/11/19 06:20:07;;;;;;;18.50;7.97;;;;;;;3.06;90.23;101252.63;5015719;28;99512;-31
2022/11/19 06:22:33;;;;;;;9.05;5.90;;;;;;;3.10;90.06;101250.72;5015579;28;101319;-31
2022/11/19 06:24:58;;;;;;;7.38;2.38;;;;;;;2.95;89.46;101250.19;5032642;28;96599;-31
2022/11/19 06:27:23;;;;;;;13.75;5.10;;;;;;;2.97;89.91;101253.72;5033789;28;96780;-31
2022/11/19 06:29:49;;;;;;;10.82;4.25;;;;;;;2.95;90.34;101258.22;5033728;28;97883;-31
2022/11/19 06:32:14;;;;;;;4.85;3.10;;;;;;;2.95;90.05;101263.56;5033508;28;103116;-31
2022/11/19 06:34:39;;;;;;;5.72;4.10;;;;;;;2.93;89.70;101272.53;5033556;28;96596;-33
2022/11/19 06:37:05;;;;;;;11.48;5.55;;;;;;;2.95;90.36;101270.72;5033813;28;96446;-31
2022/11/19 06:39:30;;;;;;;11.55;5.32;;;;;;;2.91;90.22;101283.28;5033214;28;97957;-31
2022/11/19 06:42:34;;;;;;;6.97;4.07;;;;;;;2.82;89.39;101296.00;5033970;28;97794;-32
2022/11/19 06:44:41;;;;;;;7.07;3.63;;;;;;;2.72;89.81;101289.97;5033210;28;96498;-31
2022/11/19 06:47:06;;;;;;;6.10;3.67;;;;;;;2.71;89.31;101294.41;5032895;28;96910;-31
2022/11/19 06:49:31;;;;;;;8.02;4.38;;;;;;;2.67;89.95;101298.09;5033114;28;97444;-32
2022/11/19 06:51:56;;;;;;;8.52;5.07;;;;;;;2.70;90.21;101303.38;5032658;28;109835;-31
2022/11/19 06:54:22;;;;;;;14.57;5.88;;;;;;;2.74;89.88;101301.50;5032888;28;106069;-32
2022/11/19 06:56:47;;;;;;;4.03;2.67;;;;;;;2.79;90.18;101301.41;5033054;28;100642;-31
2022/11/19 06:59:12;;;;;;;7.90;4.75;;;;;;;2.72;89.57;101306.03;5032890;28;101304;-31
2022/11/19 07:01:38;;;;;;;5.88;3.42;;;;;;;2.69;89.23;101315.00;5033593;28;97666;-31
2022/11/19 07:04:03;;;;;;;8.90;5.75;;;;;;;2.72;89.88;101306.03;5032990;28;100442;-32
2022/11/19 07:06:28;;;;;;;14.35;3.75;;;;;;;2.63;88.89;101307.09;5032518;27;96732;-31
2022/11/19 07:08:54;;;;;;;4.18;2.42;;;;;;;2.62;89.15;101310.69;5032662;28;97973;-31
2022/11/19 07:11:25;;;;;;;7.35;3.95;;;;;;;2.59;89.24;101313.41;5032657;28;107059;-31
2022/11/19 07:13:57;;;;;;;5.78;3.55;;;;;;;2.60;89.53;101314.28;5032472;28;96630;-31
2022/11/19 07:16:31;;;;;;;6.18;3.78;;;;;;;2.62;89.55;101320.50;5032649;28;96871;-33
2022/11/19 07:18:58;;;;;;;5.35;4.07;;;;;;;2.65;89.27;101320.44;5014534;28;101067;-31
2022/11/19 07:21:24;;;;;;;6.32;4.03;;;;;;;2.71;89.12;101323.84;5014616;28;100740;-31
2022/11/19 07:23:50;;;;;;;3.83;1.80;;;;;;;2.65;89.15;101332.03;5014428;28;96716;-31
2022/11/19 07:26:15;;;;;;;6.68;4.03;;;;;;;2.64;89.29;101330.25;5014707;28;96779;-31
2022/11/19 07:28:41;;;;;;;8.90;4.35;;;;;;;2.64;89.27;101340.06;5032587;28;98930;-31
2022/11/19 07:31:07;;;;;;;9.65;5.18;;;;;;;2.68;89.64;101342.63;5033067;28;97895;-32
2022/11/19 07:33:34;;;;;;;4.55;2.55;;;;;;;2.64;89.09;101350.75;5014529;28;96567;-31
2022/11/19 07:36:00;;;;;;;7.00;4.53;;;;;;;2.60;88.92;101344.59;5014632;28;96778;-31
2022/11/19 07:38:25;;;;;;;8.90;4.90;;;;;;;2.53;88.45;101348.31;5013764;28;100732;-34
2022/11/19 07:40:55;;;;;;;10.13;5.72;;;;;;;2.49;88.58;101344.81;5032535;28;97937;-32
2022/11/19 07:43:21;;;;;;;8.73;4.32;;;;;;;2.55;88.95;101346.47;5014446;28;96721;-31
2022/11/19 07:45:46;;;;;;;6.75;4.95;;;;;;;2.54;89.06;101344.72;5014077;28;96975;-31
2022/11/19 07:48:11;;;;;;;8.50;4.70;;;;;;;2.61;89.19;101345.47;5032353;28;98077;-31
2022/11/19 07:50:37;;;;;;;7.00;4.65;;;;;;;2.62;88.92;101344.56;5032429;28;97427;-32
2022/11/19 07:53:03;;;;;;;6.63;5.20;;;;;;;2.66;88.77;101347.13;5014226;28;96538;-31
2022/11/19 07:55:28;;;;;;;6.30;3.70;;;;;;;2.64;88.39;101366.81;5032744;28;96789;-31
2022/11/19 07:57:53;;;;;;;9.27;4.85;;;;;;;2.60;88.40;101363.34;5032382;28;97367;-31
2022/11/19 08:00:19;;;;;;;5.70;3.67;;;;;;;2.58;88.28;101372.28;5032387;28;97843;-31
2022/11/19 08:02:44;;;;;;;13.23;6.82;;;;;;;2.53;88.87;101370.59;5031886;28;96613;-31
2022/11/19 08:05:10;;;;;;;12.18;5.00;;;;;;;2.48;88.46;101376.91;5032174;28;96745;-31
2022/11/19 08:07:37;;;;;;;4.97;4.05;;;;;;;2.48;88.12;101380.50;5031762;28;98387;-32
2022/11/19 08:10:05;;;;;;;8.25;3.90;;;;;;;2.42;87.90;101382.41;5014000;28;100738;-32
2022/11/19 08:12:30;;;;;;;10.15;5.13;;;;;;;2.45;88.83;101380.53;5014106;28;96800;-31
2022/11/19 08:14:55;;;;;;;6.28;4.22;;;;;;;2.46;88.62;101390.34;5031994;28;96841;-31
2022/11/19 08:20:06;;;;;;;9.25;5.13;;;;;;;2.43;88.30;101382.38;5032600;28;97003;-32
2022/11/19 08:22:31;;;;;;;5.88;3.60;;;;;;;2.41;87.26;101391.31;5013881;28;96713;-31
2022/11/19 08:24:56;;;;;;;5.82;3.78;;;;;;;2.38;87.35;101388.72;5031783;28;96783;-31
2022/11/19 08:27:21;;;;;;;3.97;3.13;;;;;;;2.42;87.91;101395.78;5031682;28;97832;-31
2022/11/19 08:29:47;;;;;;;5.88;3.92;;;;;;;2.39;88.36;101386.00;5031931;28;97738;-31
2022/11/19 08:32:12;;;;;;;7.57;4.43;;;;;;;2.45;88.67;101398.38;5031775;28;96570;-32
2022/11/19 08:34:37;;;;;;;5.35;3.80;;;;;;;2.48;88.77;101401.88;5031955;28;96755;-32
2022/11/19 08:37:03;;;;;;;11.32;6.03;;;;;;;2.45;87.54;101396.56;5031889;28;97923;-32
2022/11/19 08:39:28;;;;;;;11.02;6.68;;;;;;;2.47;88.24;101401.91;5031230;28;101765;-31
2022/11/19 08:44:37;;;;;;;3.55;2.58;;;;;;;2.49;88.08;101403.63;5032130;28;96669;-33
2022/11/19 08:47:03;;;;;;;6.78;4.32;;;;;;;2.54;88.25;101404.41;5031470;28;99494;-31
2022/11/19 08:49:28;;;;;;;9.38;5.15;;;;;;;2.66;88.52;101407.78;5031631;28;97777;-33
2022/11/19 08:51:53;;;;;;;5.30;2.67;;;;;;;2.53;86.54;101412.50;5031380;28;96570;-31
2022/11/19 08:54:19;;;;;;;6.20;3.25;;;;;;;2.47;87.05;101405.44;5031879;28;96788;-32
2022/11/19 08:56:44;;;;;;;4.47;3.22;;;;;;;2.48;87.13;101417.03;5031476;28;98125;-31
2022/11/19 08:59:09;;;;;;;6.82;3.95;;;;;;;2.51;86.94;101425.00;4996560;28;99977;-32
2022/11/19 09:01:35;;;;;;;5.03;4.00;;;;;;;2.53;86.43;101417.84;5031502;28;96702;-31
2022/11/19 09:04:00;;;;;;;6.82;3.65;;;;;;;2.46;86.47;101419.75;5031508;28;96832;-31
2022/11/19 09:06:26;;;;;;;4.97;4.00;;;;;;;2.41;85.54;101423.38;5031555;28;97325;-31
2022/11/19 09:08:51;;;;;;;5.68;3.42;;;;;;;2.43;86.96;101424.25;5031297;28;99289;-30
2022/11/19 09:11:18;;;;;;;8.35;4.82;;;;;;;2.45;86.63;101430.44;5031423;28;97244;-32
2022/11/19 09:13:44;;;;;;;4.68;3.03;;;;;;;2.55;87.46;101435.63;5013089;28;96880;-32
2022/11/19 09:16:10;;;;;;;5.78;3.67;;;;;;;2.53;87.04;101432.09;5030687;28;97428;-33
2022/11/19 09:18:38;;;;;;;6.63;3.60;;;;;;;2.57;86.83;101440.03;5031329;28;98425;-32
2022/11/19 09:21:04;;;;;;;9.48;5.45;;;;;;;2.61;87.31;101447.09;5013169;28;96593;-31
2022/11/19 09:23:29;;;;;;;5.65;3.28;;;;;;;2.52;86.89;101441.00;5013660;28;96885;-30
2022/11/19 09:25:58;;;;;;;5.70;3.85;;;;;;;2.56;87.00;101447.19;5030852;28;102269;-31
2022/11/19 09:28:25;;;;;;;3.40;2.63;;;;;;;2.53;86.94;101456.16;5012842;28;101156;-31
2022/11/19 09:31:01;;;;;;;7.38;5.03;;;;;;;2.52;86.55;101459.72;5015236;28;96585;-31
2022/11/19 09:33:29;;;;;;;9.57;6.28;;;;;;;2.55;87.08;101448.09;5034938;28;97385;-32
2022/11/19 09:35:55;;;;;;;7.75;3.83;;;;;;;2.61;86.63;101453.31;5016429;28;101339;-31
2022/11/19 09:38:20;;;;;;;8.23;4.60;;;;;;;2.59;86.27;101467.63;5034286;28;99095;-31
2022/11/19 09:40:49;;;;;;;7.35;3.10;;;;;;;2.53;86.16;101456.16;5033937;28;96727;-33
2022/11/19 09:43:22;;;;;;;9.68;4.57;;;;;;;2.61;86.52;101466.69;5034422;28;96759;-31
2022/11/19 09:45:50;;;;;;;3.65;3.33;;;;;;;2.57;86.11;101475.69;5016276;28;101051;-31
2022/11/19 09:48:35;;;;;;;6.40;4.43;;;;;;;2.51;86.28;101476.69;5034060;28;99495;-33
2022/11/19 09:51:11;;;;;;;3.85;3.30;;;;;;;2.50;86.47;101466.91;5016370;28;96772;-32
2022/11/19 09:54:05;;;;;;;4.22;3.08;;;;;;;2.52;86.36;101478.44;5016279;28;98853;-32
2022/11/19 09:56:37;;;;;;;8.23;5.35;;;;;;;2.50;86.49;101472.25;5023829;28;98017;-31
2022/11/19 09:59:12;;;;;;;9.57;3.67;;;;;;;2.57;86.80;101486.38;5016176;28;99244;-32
2022/11/19 10:01:37;;;;;;;11.65;6.47;;;;;;;2.65;86.35;101481.78;5015886;28;96791;-32
2022/11/19 10:04:03;;;;;;;12.45;6.70;;;;;;;2.60;86.14;101482.75;5034083;28;96779;-31
2022/11/19 10:07:05;;;;;;;8.63;5.72;;;;;;;2.54;85.86;101487.31;5033442;28;98816;-31
2022/11/19 10:09:39;;;;;;;5.63;4.03;;;;;;;2.45;85.55;101491.94;5009918;28;99361;-31
2022/11/19 10:12:26;;;;;;;5.07;3.70;;;;;;;2.41;85.01;101482.22;5033854;28;96821;-31
2022/11/19 10:15:13;;;;;;;9.23;4.40;;;;;;;2.40;85.41;101488.47;5034378;28;96609;-31
2022/11/19 10:18:01;;;;;;;4.28;3.10;;;;;;;2.40;85.60;101488.47;5015381;28;100778;-31
2022/11/19 10:21:03;;;;;;;9.10;3.92;;;;;;;2.39;85.54;101500.97;5014970;28;100853;-32
2022/11/19 10:23:53;;;;;;;7.82;4.80;;;;;;;2.37;86.20;101489.41;5033836;28;96613;-31
2022/11/19 10:26:31;;;;;;;4.18;3.13;;;;;;;2.26;84.47;101491.38;5034513;28;96515;-31
2022/11/19 10:28:57;;;;;;;7.97;4.40;;;;;;;2.31;85.90;101489.50;5015307;28;101745;-32
2022/11/19 10:31:49;;;;;;;7.25;5.03;;;;;;;2.40;86.12;101494.69;5033261;28;99633;-31
2022/11/19 10:34:22;;;;;;;8.13;5.63;;;;;;;2.36;86.18;101493.00;5015019;28;97579;-31
2022/11/19 10:36:59;;;;;;;4.80;3.58;;;;;;;2.38;85.90;101493.84;5015547;28;96710;-31
2022/11/19 10:39:34;;;;;;;4.13;2.85;;;;;;;2.44;85.51;101514.25;5033573;28;97501;-32
2022/11/19 10:42:05;;;;;;;5.78;3.78;;;;;;;2.39;85.25;101511.66;5007068;28;99488;-31
2022/11/19 10:44:40;;;;;;;11.63;7.10;;;;;;;2.33;84.99;101490.38;5015361;28;96687;-31
2022/11/19 10:47:16;;;;;;;8.38;4.88;;;;;;;2.22;85.04;101492.38;5015496;28;96663;-31
2022/11/19 10:49:42;;;;;;;16.40;6.57;;;;;;;2.20;84.80;101492.38;5033382;28;99269;-31
2022/11/19 10:52:19;;;;;;;13.07;7.20;;;;;;;2.20;85.56;101480.81;5033877;28;97783;-31
2022/11/19 10:54:47;;;;;;;8.55;5.40;;;;;;;2.22;85.03;101487.03;5031454;28;96746;-31
2022/11/19 10:57:17;;;;;;;8.73;5.28;;;;;;;2.21;85.22;101479.88;5031861;28;96958;-31
2022/11/19 10:59:43;;;;;;;5.65;4.43;;;;;;;2.23;85.28;101476.28;5031377;28;101026;-33
2022/11/19 11:02:47;;;;;;;11.57;5.78;;;;;;;2.26;85.42;101472.66;5033045;27;99718;-31
2022/11/19 11:05:15;;;;;;;6.95;4.18;;;;;;;2.27;85.07;101471.78;5028963;28;96721;-32
2022/11/19 11:07:50;;;;;;;6.90;4.70;;;;;;;2.25;85.37;101470.91;5031591;28;96823;-31
2022/11/19 11:10:54;;;;;;;11.63;7.45;;;;;;;2.20;84.99;101476.34;5031401;28;101076;-31
2022/11/19 11:16:23;;;;;;;9.10;4.82;;;;;;;2.10;84.77;101469.41;5033480;28;96805;-31
2022/11/19 11:18:52;;;;;;;4.25;3.50;;;;;;;2.16;85.02;101468.41;5033791;27;96766;-31
2022/11/19 11:21:30;;;;;;;12.48;5.40;;;;;;;2.14;84.55;101473.75;5031401;28;100897;-31
2022/11/19 11:23:55;;;;;;;22.13;8.23;;;;;;;2.13;85.06;101480.03;5033995;27;99425;-31
2022/11/19 11:26:24;;;;;;;13.32;7.95;;;;;;;2.19;84.92;101490.59;5034466;27;97015;-32
2022/11/19 11:29:11;;;;;;;22.38;9.52;;;;;;;2.19;85.24;101485.25;5034930;27;96852;-31
2022/11/19 11:31:36;;;;;;;14.45;8.55;;;;;;;2.20;84.59;101492.38;5053012;27;98836;-31
2022/11/19 11:34:04;;;;;;;9.57;5.18;;;;;;;2.15;84.80;101480.00;5053098;27;97890;-32
2022/11/19 11:36:34;;;;;;;5.03;3.53;;;;;;;2.15;84.86;101480.88;5034773;27;96562;-31
2022/11/19 11:39:02;;;;;;;7.57;3.80;;;;;;;2.21;84.33;101479.88;5034823;27;97106;-32
2022/11/19 11:41:39;;;;;;;5.70;3.20;;;;;;;2.26;84.47;101483.34;5052933;27;97826;-31
2022/11/19 11:44:13;;;;;;;7.65;3.90;;;;;;;2.27;84.55;101485.16;5034877;27;100782;-31
2022/11/19 11:46:54;;;;;;;11.90;4.65;;;;;;;2.21;83.86;101477.22;5053017;27;96476;-31
2022/11/19 11:49:31;;;;;;;8.32;4.18;;;;;;;2.25;84.20;101476.25;5034733;27;96743;-31
2022/11/19 11:52:03;;;;;;;6.00;3.13;;;;;;;2.27;84.52;101469.09;5052010;27;99832;-32
2022/11/19 11:54:28;;;;;;;5.68;3.60;;;;;;;2.22;83.58;101466.50;5052587;27;97903;-31
2022/11/19 11:57:11;;;;;;;4.32;3.05;;;;;;;2.23;83.41;101478.06;5052642;27;96527;-32
2022/11/19 11:59:36;;;;;;;9.40;3.88;;;;;;;2.27;83.88;101482.47;5034605;27;96680;-32
2022/11/19 12:02:05;;;;;;;4.15;3.45;;;;;;;2.30;83.78;101480.63;5052752;27;97426;-30
2022/11/19 12:04:31;;;;;;;6.75;5.20;;;;;;;2.39;83.95;101489.41;5034148;27;99239;-31
2022/11/19 12:07:19;;;;;;;4.85;2.90;;;;;;;2.36;83.72;101485.00;5034110;27;96600;-31